Time;durP1;ratioP1;P1;durP2;ratioP2;P2;SDS_P1;SDS_P2;PMS_P1;PMS_P2;Temp;Humidity;BMP_temperature;BMP_pressure;BME280_temperature;BME280_humidity;BME280_pressure;Samples;Min_cycle;Max_cycle;Signal;HPM_P1;HPM_P2
2023/10/24 00:00:13;;;;;;;23.95;14.85;;;;;;;;;;5032670;28;20217;-75
2023/10/24 00:02:39;;;;;;;27.08;15.02;;;;;;;;;;5023061;28;20281;-75
2023/10/24 00:05:05;;;;;;;25.13;14.48;;;;;;;;;;5018865;28;20182;-75
2023/10/24 00:07:30;;;;;;;24.85;14.52;;;;;;;;;;5027432;28;20190;-75
2023/10/24 00:09:56;;;;;;;22.45;15.02;;;;;;;;;;5030589;28;20293;-75
2023/10/24 00:12:21;;;;;;;25.30;13.90;;;;;;;;;;5030749;28;20261;-75
2023/10/24 00:14:47;;;;;;;26.45;14.48;;;;;;;;;;5025100;28;20242;-75
2023/10/24 00:17:12;;;;;;;20.80;13.43;;;;;;;;;;5043970;28;20602;-74
2023/10/24 00:19:38;;;;;;;23.75;13.27;;;;;;;;;;5033414;28;20710;-74
2023/10/24 00:22:03;;;;;;;23.77;13.98;;;;;;;;;;5033761;28;20326;-74
2023/10/24 00:24:28;;;;;;;24.83;13.35;;;;;;;;;;5031153;28;20186;-73
2023/10/24 00:26:55;;;;;;;23.10;13.23;;;;;;;;;;5032126;28;20602;-74
2023/10/24 00:29:21;;;;;;;20.80;13.57;;;;;;;;;;5029058;28;20187;-74
2023/10/24 00:31:46;;;;;;;22.08;13.30;;;;;;;;;;5033283;28;20189;-74
2023/10/24 00:34:12;;;;;;;25.27;14.60;;;;;;;;;;5030879;28;20265;-73
2023/10/24 00:36:39;;;;;;;20.77;13.25;;;;;;;;;;5032639;28;20198;-75
2023/10/24 00:39:05;;;;;;;24.65;14.23;;;;;;;;;;5024916;28;20877;-74
2023/10/24 00:41:31;;;;;;;23.20;13.90;;;;;;;;;;5032644;28;20194;-74
2023/10/24 00:43:56;;;;;;;20.73;12.85;;;;;;;;;;5037007;28;20247;-74
2023/10/24 00:46:22;;;;;;;19.73;12.25;;;;;;;;;;5032383;28;20182;-74
2023/10/24 00:48:48;;;;;;;18.48;12.45;;;;;;;;;;5032052;28;20178;-74
2023/10/24 00:51:13;;;;;;;19.17;11.95;;;;;;;;;;5030789;28;20178;-74
2023/10/24 00:53:39;;;;;;;19.27;12.70;;;;;;;;;;5026940;28;20198;-73
2023/10/24 00:56:06;;;;;;;20.77;12.48;;;;;;;;;;5030015;28;20186;-73
2023/10/24 00:58:34;;;;;;;19.42;12.18;;;;;;;;;;5030622;28;22133;-72
2023/10/24 01:01:00;;;;;;;18.83;11.30;;;;;;;;;;5032097;28;20218;-72
2023/10/24 01:03:26;;;;;;;18.77;10.75;;;;;;;;;;5026605;28;20194;-72
2023/10/24 01:05:52;;;;;;;19.55;10.75;;;;;;;;;;5032139;28;20200;-72
2023/10/24 01:08:18;;;;;;;15.25;9.73;;;;;;;;;;5029361;28;20192;-72
2023/10/24 01:10:43;;;;;;;15.20;9.85;;;;;;;;;;5031110;28;20265;-70
2023/10/24 01:13:09;;;;;;;19.67;10.40;;;;;;;;;;5033206;28;20614;-73
2023/10/24 01:15:34;;;;;;;18.23;10.15;;;;;;;;;;5035191;28;20269;-73
2023/10/24 01:17:59;;;;;;;16.52;9.55;;;;;;;;;;5032009;28;20282;-73
2023/10/24 01:20:25;;;;;;;16.98;9.43;;;;;;;;;;5027246;28;20218;-73
2023/10/24 01:22:50;;;;;;;15.10;9.80;;;;;;;;;;5027294;28;20396;-72
2023/10/24 01:25:15;;;;;;;16.58;9.85;;;;;;;;;;5022642;28;20194;-73
2023/10/24 01:27:42;;;;;;;14.18;9.20;;;;;;;;;;5029682;28;20289;-73
2023/10/24 01:30:12;;;;;;;16.15;8.68;;;;;;;;;;5039634;28;20281;-73
2023/10/24 01:32:38;;;;;;;14.63;8.52;;;;;;;;;;5027805;28;20210;-73
2023/10/24 01:35:05;;;;;;;13.18;8.13;;;;;;;;;;5019936;28;20629;-72
2023/10/24 01:37:31;;;;;;;16.83;8.25;;;;;;;;;;5018532;28;20280;-73
2023/10/24 01:39:56;;;;;;;10.85;7.35;;;;;;;;;;5031056;28;20218;-73
2023/10/24 01:42:22;;;;;;;16.15;7.55;;;;;;;;;;5030165;28;20195;-74
2023/10/24 01:44:47;;;;;;;15.63;7.32;;;;;;;;;;5026801;28;20661;-73
2023/10/24 01:47:12;;;;;;;11.07;7.07;;;;;;;;;;5013592;28;20195;-73
2023/10/24 01:49:38;;;;;;;11.98;7.18;;;;;;;;;;5042337;28;20195;-72
2023/10/24 01:52:03;;;;;;;12.88;6.85;;;;;;;;;;5027437;28;20194;-72
2023/10/24 01:54:28;;;;;;;12.70;6.90;;;;;;;;;;5027654;28;20183;-72
2023/10/24 01:56:54;;;;;;;13.05;6.78;;;;;;;;;;5024495;28;20676;-72
2023/10/24 01:59:19;;;;;;;12.50;7.07;;;;;;;;;;5034490;28;20213;-72
2023/10/24 02:01:44;;;;;;;13.25;7.07;;;;;;;;;;5029161;28;20657;-72
2023/10/24 02:04:10;;;;;;;14.82;6.55;;;;;;;;;;5031062;28;20277;-72
2023/10/24 02:06:35;;;;;;;15.30;7.45;;;;;;;;;;5031056;28;20198;-74
2023/10/24 02:09:00;;;;;;;12.63;6.47;;;;;;;;;;5023410;28;20217;-73
2023/10/24 02:11:26;;;;;;;16.00;6.45;;;;;;;;;;5024073;28;20197;-73
2023/10/24 02:13:51;;;;;;;14.27;6.53;;;;;;;;;;5030629;28;20553;-73
2023/10/24 02:16:17;;;;;;;10.30;6.78;;;;;;;;;;5009448;28;20240;-74
2023/10/24 02:18:42;;;;;;;12.70;6.38;;;;;;;;;;5022680;28;20596;-73
2023/10/24 02:21:08;;;;;;;12.68;6.95;;;;;;;;;;5022176;28;20225;-73
2023/10/24 02:23:36;;;;;;;12.25;7.07;;;;;;;;;;5028740;28;20186;-73
2023/10/24 02:26:02;;;;;;;11.55;7.70;;;;;;;;;;5024449;28;20194;-73
2023/10/24 02:28:27;;;;;;;16.58;8.00;;;;;;;;;;5019486;28;20569;-72
2023/10/24 02:30:52;;;;;;;14.73;8.77;;;;;;;;;;5029509;28;20451;-72
2023/10/24 02:33:18;;;;;;;17.90;8.00;;;;;;;;;;5026774;28;20198;-72
2023/10/24 02:35:43;;;;;;;13.80;9.63;;;;;;;;;;5026048;28;20205;-72
2023/10/24 02:38:08;;;;;;;18.55;10.98;;;;;;;;;;5042764;28;20197;-72
2023/10/24 02:40:34;;;;;;;20.35;11.38;;;;;;;;;;5026570;28;20670;-71
2023/10/24 02:42:59;;;;;;;25.40;12.60;;;;;;;;;;5024811;28;20253;-72
2023/10/24 02:45:24;;;;;;;17.55;12.13;;;;;;;;;;5024871;28;20203;-71
2023/10/24 02:47:50;;;;;;;21.63;12.43;;;;;;;;;;5028723;28;20269;-71
2023/10/24 02:50:16;;;;;;;19.38;12.45;;;;;;;;;;5022651;28;20540;-70
2023/10/24 02:52:41;;;;;;;18.60;12.57;;;;;;;;;;5025857;28;20202;-70
2023/10/24 02:55:07;;;;;;;18.98;12.40;;;;;;;;;;5020714;28;20202;-71
2023/10/24 02:57:32;;;;;;;22.67;13.88;;;;;;;;;;5028846;28;20700;-70
2023/10/24 02:59:57;;;;;;;22.20;13.80;;;;;;;;;;5029390;28;20555;-71
2023/10/24 03:02:23;;;;;;;14.70;11.43;;;;;;;;;;5026435;28;20197;-70
2023/10/24 03:04:48;;;;;;;20.48;13.00;;;;;;;;;;5017458;28;20190;-70
2023/10/24 03:07:14;;;;;;;25.50;14.10;;;;;;;;;;5030324;28;20182;-71
2023/10/24 03:09:39;;;;;;;19.85;13.98;;;;;;;;;;5023352;28;20194;-72
2023/10/24 03:12:09;;;;;;;18.80;14.32;;;;;;;;;;5030384;28;20186;-72
2023/10/24 03:14:35;;;;;;;21.15;14.57;;;;;;;;;;5029610;28;20256;-71
2023/10/24 03:17:00;;;;;;;20.85;14.65;;;;;;;;;;5019404;28;20190;-72
2023/10/24 03:19:27;;;;;;;21.15;14.15;;;;;;;;;;5028960;28;20209;-71
2023/10/24 03:21:53;;;;;;;18.33;13.68;;;;;;;;;;5041358;28;20648;-71
2023/10/24 03:24:18;;;;;;;21.92;14.88;;;;;;;;;;5034387;28;20197;-71
2023/10/24 03:26:43;;;;;;;20.30;13.68;;;;;;;;;;5028682;28;20683;-70
2023/10/24 03:29:09;;;;;;;21.42;14.70;;;;;;;;;;5028434;28;20198;-70
2023/10/24 03:31:36;;;;;;;21.17;13.50;;;;;;;;;;5025923;28;20186;-71
2023/10/24 03:34:01;;;;;;;19.30;13.73;;;;;;;;;;5023476;28;20202;-70
2023/10/24 03:36:26;;;;;;;24.10;13.77;;;;;;;;;;5029573;28;20205;-70
2023/10/24 03:38:52;;;;;;;17.23;13.50;;;;;;;;;;5028551;28;20198;-71
2023/10/24 03:41:17;;;;;;;17.65;13.13;;;;;;;;;;5026343;28;20193;-70
2023/10/24 03:43:48;;;;;;;20.92;13.63;;;;;;;;;;5014545;28;20274;-69
2023/10/24 03:46:13;;;;;;;18.63;13.35;;;;;;;;;;5028903;28;20590;-69
2023/10/24 03:48:39;;;;;;;20.05;13.23;;;;;;;;;;5022751;28;20191;-71
2023/10/24 03:51:04;;;;;;;22.45;13.50;;;;;;;;;;5022641;28;20194;-70
2023/10/24 03:53:29;;;;;;;21.83;13.32;;;;;;;;;;5028597;28;20272;-70
2023/10/24 03:55:58;;;;;;;20.38;12.27;;;;;;;;;;5021069;28;20205;-70
2023/10/24 03:58:24;;;;;;;17.90;12.18;;;;;;;;;;5028809;28;20182;-70
2023/10/24 04:00:49;;;;;;;21.70;12.55;;;;;;;;;;5028076;28;20204;-68
2023/10/24 04:03:14;;;;;;;16.90;11.85;;;;;;;;;;5028226;28;20198;-70
2023/10/24 04:05:40;;;;;;;15.43;11.80;;;;;;;;;;5029327;28;20601;-69
2023/10/24 04:08:05;;;;;;;17.77;10.88;;;;;;;;;;5014778;28;20191;-69
2023/10/24 04:10:34;;;;;;;12.57;9.55;;;;;;;;;;5023947;28;20538;-70
2023/10/24 04:12:59;;;;;;;16.08;10.35;;;;;;;;;;5023454;28;20182;-69
2023/10/24 04:15:24;;;;;;;15.98;10.80;;;;;;;;;;5028893;28;20253;-70
2023/10/24 04:17:51;;;;;;;12.88;10.57;;;;;;;;;;5015861;28;20662;-70
2023/10/24 04:20:16;;;;;;;12.65;10.70;;;;;;;;;;5028944;28;20601;-70
2023/10/24 04:22:41;;;;;;;18.40;11.20;;;;;;;;;;5032431;28;20195;-70
2023/10/24 04:25:07;;;;;;;11.73;9.35;;;;;;;;;;5025199;28;20206;-68
2023/10/24 04:27:33;;;;;;;15.55;10.55;;;;;;;;;;5027205;28;20819;-70
2023/10/24 04:29:59;;;;;;;14.52;10.77;;;;;;;;;;5037797;28;20268;-70
2023/10/24 04:32:24;;;;;;;13.50;10.35;;;;;;;;;;5025686;28;20191;-69
2023/10/24 04:34:51;;;;;;;11.27;9.32;;;;;;;;;;5026071;28;20198;-70
2023/10/24 04:37:19;;;;;;;12.55;10.05;;;;;;;;;;5025565;28;20212;-70
2023/10/24 04:39:45;;;;;;;16.27;9.10;;;;;;;;;;5018928;28;20203;-69
2023/10/24 04:42:10;;;;;;;12.40;9.50;;;;;;;;;;5014856;28;20198;-69
2023/10/24 04:44:36;;;;;;;14.77;9.23;;;;;;;;;;5026976;28;20652;-70
2023/10/24 04:47:01;;;;;;;11.50;9.48;;;;;;;;;;5016269;28;20748;-69
2023/10/24 04:49:27;;;;;;;11.43;8.55;;;;;;;;;;5023540;28;20191;-70
2023/10/24 04:51:52;;;;;;;9.65;7.82;;;;;;;;;;5019291;28;20688;-69
2023/10/24 04:54:18;;;;;;;10.70;9.25;;;;;;;;;;5028226;28;20232;-69
2023/10/24 04:56:43;;;;;;;11.32;9.35;;;;;;;;;;5024427;28;20261;-70
2023/10/24 04:59:08;;;;;;;10.82;8.55;;;;;;;;;;5032514;28;20213;-70
2023/10/24 05:01:37;;;;;;;16.42;8.88;;;;;;;;;;5030993;28;20247;-72
2023/10/24 05:04:04;;;;;;;9.45;7.40;;;;;;;;;;5020620;28;20242;-69
2023/10/24 05:06:30;;;;;;;13.57;8.43;;;;;;;;;;5023611;28;20199;-68
2023/10/24 05:08:56;;;;;;;12.38;8.55;;;;;;;;;;5026920;28;20212;-69
2023/10/24 05:11:21;;;;;;;11.60;7.75;;;;;;;;;;5029656;28;20206;-68
2023/10/24 05:13:46;;;;;;;11.43;8.30;;;;;;;;;;5030071;28;20595;-69
2023/10/24 05:16:13;;;;;;;10.32;7.53;;;;;;;;;;5038372;28;20308;-69
2023/10/24 05:18:38;;;;;;;13.23;8.95;;;;;;;;;;5020948;28;20232;-69
2023/10/24 05:21:03;;;;;;;11.95;9.18;;;;;;;;;;5013793;28;20214;-69
2023/10/24 05:23:29;;;;;;;14.10;9.52;;;;;;;;;;5016927;28;20206;-69
2023/10/24 05:25:55;;;;;;;12.13;9.00;;;;;;;;;;5025650;28;20210;-68
2023/10/24 05:28:20;;;;;;;12.70;9.52;;;;;;;;;;5023200;28;20327;-70
2023/10/24 05:30:46;;;;;;;11.52;8.77;;;;;;;;;;5042306;28;20183;-70
2023/10/24 05:33:11;;;;;;;13.55;9.77;;;;;;;;;;5026247;28;20194;-68
2023/10/24 05:35:37;;;;;;;10.88;9.60;;;;;;;;;;5027562;28;20225;-68
2023/10/24 05:38:02;;;;;;;13.20;7.93;;;;;;;;;;5024662;28;20197;-69
2023/10/24 05:40:27;;;;;;;10.32;9.25;;;;;;;;;;5026616;28;20295;-70
2023/10/24 05:42:53;;;;;;;11.15;8.52;;;;;;;;;;5029901;28;20556;-69
2023/10/24 05:45:21;;;;;;;12.82;9.00;;;;;;;;;;5029723;28;20507;-70
2023/10/24 05:47:46;;;;;;;13.13;8.80;;;;;;;;;;5027496;28;20190;-71
2023/10/24 05:50:12;;;;;;;12.70;9.38;;;;;;;;;;4334526;28;10000830;-70
2023/10/24 05:52:37;;;;;;;13.07;9.10;;;;;;;;;;5035479;28;20244;-69
2023/10/24 05:55:03;;;;;;;12.93;9.00;;;;;;;;;;5027263;28;20188;-68
2023/10/24 05:57:29;;;;;;;13.10;9.20;;;;;;;;;;5026315;28;20260;-70
2023/10/24 05:59:55;;;;;;;11.02;8.32;;;;;;;;;;5028194;28;20209;-68
2023/10/24 06:02:20;;;;;;;11.50;8.40;;;;;;;;;;5033217;28;20252;-69
2023/10/24 06:04:46;;;;;;;11.73;8.63;;;;;;;;;;5026683;28;20546;-69
2023/10/24 06:07:11;;;;;;;11.18;9.48;;;;;;;;;;5019985;28;20190;-70
2023/10/24 06:09:36;;;;;;;12.75;8.82;;;;;;;;;;5013590;28;20545;-69
2023/10/24 06:12:02;;;;;;;11.77;9.55;;;;;;;;;;5030332;28;20218;-69
2023/10/24 06:14:27;;;;;;;12.05;9.52;;;;;;;;;;5027329;28;20219;-69
2023/10/24 06:16:53;;;;;;;11.20;8.88;;;;;;;;;;5022683;28;20296;-70
2023/10/24 06:19:18;;;;;;;13.10;8.80;;;;;;;;;;5029032;28;20214;-69
2023/10/24 06:21:44;;;;;;;11.60;9.10;;;;;;;;;;5034625;28;20202;-68
2023/10/24 06:24:09;;;;;;;10.60;8.10;;;;;;;;;;5032197;28;20281;-69
2023/10/24 06:26:34;;;;;;;15.10;9.18;;;;;;;;;;5023680;28;20280;-69
2023/10/24 06:29:00;;;;;;;11.02;8.80;;;;;;;;;;5035627;28;20645;-69
2023/10/24 06:31:28;;;;;;;12.40;8.70;;;;;;;;;;5027547;28;20281;-70
2023/10/24 06:33:53;;;;;;;10.48;8.68;;;;;;;;;;5017467;28;20272;-70
2023/10/24 06:36:21;;;;;;;9.85;8.73;;;;;;;;;;4679967;28;9999749;-71
2023/10/24 06:38:46;;;;;;;10.88;9.10;;;;;;;;;;5014255;28;20218;-70
2023/10/24 06:41:13;;;;;;;12.98;9.18;;;;;;;;;;5023182;28;20683;-70
2023/10/24 06:43:39;;;;;;;11.38;9.07;;;;;;;;;;5021188;28;20198;-69
2023/10/24 06:46:05;;;;;;;13.43;9.77;;;;;;;;;;5021275;28;20297;-69
2023/10/24 06:48:31;;;;;;;13.00;9.52;;;;;;;;;;5021458;28;20709;-69
2023/10/24 06:50:57;;;;;;;13.55;9.82;;;;;;;;;;5025995;28;20213;-69
2023/10/24 06:53:22;;;;;;;15.90;10.43;;;;;;;;;;5022585;28;20233;-69
2023/10/24 06:55:47;;;;;;;17.83;10.52;;;;;;;;;;5023320;28;20201;-70
2023/10/24 06:58:13;;;;;;;14.70;10.35;;;;;;;;;;5023293;28;20673;-69
2023/10/24 07:00:39;;;;;;;14.95;9.55;;;;;;;;;;5024506;28;20222;-69
2023/10/24 07:03:04;;;;;;;11.38;9.50;;;;;;;;;;5029796;28;20198;-69
2023/10/24 07:05:29;;;;;;;12.45;9.60;;;;;;;;;;5026769;28;20230;-69
2023/10/24 07:07:55;;;;;;;11.43;9.57;;;;;;;;;;5022560;28;20629;-69
2023/10/24 07:10:20;;;;;;;12.02;10.38;;;;;;;;;;5021926;28;20197;-69
2023/10/24 07:12:46;;;;;;;15.73;10.45;;;;;;;;;;5019128;28;20567;-69
2023/10/24 07:15:11;;;;;;;13.18;10.73;;;;;;;;;;5015126;28;20257;-69
2023/10/24 07:17:37;;;;;;;12.38;10.32;;;;;;;;;;5013652;28;20488;-69
2023/10/24 07:20:04;;;;;;;13.95;9.80;;;;;;;;;;5024216;28;20559;-69
2023/10/24 07:22:30;;;;;;;12.63;10.32;;;;;;;;;;5027367;28;20233;-70
2023/10/24 07:24:55;;;;;;;14.48;10.65;;;;;;;;;;5022866;28;20244;-70
2023/10/24 07:27:21;;;;;;;12.77;10.43;;;;;;;;;;5023733;28;20448;-69
2023/10/24 07:29:47;;;;;;;13.98;10.43;;;;;;;;;;5019691;28;20665;-70
2023/10/24 07:32:13;;;;;;;13.30;10.48;;;;;;;;;;5019174;28;20195;-69
2023/10/24 07:34:41;;;;;;;13.70;10.30;;;;;;;;;;5022533;28;20563;-68
2023/10/24 07:37:09;;;;;;;11.45;9.88;;;;;;;;;;5014821;28;20185;-69
2023/10/24 07:39:36;;;;;;;10.77;8.90;;;;;;;;;;5025964;28;20218;-69
2023/10/24 07:42:02;;;;;;;12.50;10.07;;;;;;;;;;5015802;28;20186;-68
2023/10/24 07:44:27;;;;;;;12.43;9.60;;;;;;;;;;5014780;28;20185;-69
2023/10/24 07:46:53;;;;;;;12.38;9.38;;;;;;;;;;5025513;28;20190;-69
2023/10/24 07:49:18;;;;;;;11.80;8.77;;;;;;;;;;5017529;28;20179;-69
2023/10/24 07:51:43;;;;;;;11.80;8.80;;;;;;;;;;5018070;28;20190;-70
2023/10/24 07:54:10;;;;;;;10.85;8.82;;;;;;;;;;5021229;28;20213;-69
2023/10/24 07:56:37;;;;;;;13.90;8.88;;;;;;;;;;5020487;28;20545;-69
2023/10/24 07:59:04;;;;;;;11.00;8.93;;;;;;;;;;5026906;28;20215;-68
2023/10/24 08:01:29;;;;;;;12.25;8.20;;;;;;;;;;5031435;28;20186;-70
2023/10/24 08:03:54;;;;;;;10.38;8.20;;;;;;;;;;5018033;28;20202;-70
2023/10/24 08:06:20;;;;;;;9.70;7.40;;;;;;;;;;5033441;28;20732;-70
2023/10/24 08:08:45;;;;;;;9.85;7.30;;;;;;;;;;5030092;28;20247;-69
2023/10/24 08:11:11;;;;;;;8.50;6.70;;;;;;;;;;5031469;28;20177;-69
2023/10/24 08:13:37;;;;;;;9.82;6.70;;;;;;;;;;5028688;28;20197;-69
2023/10/24 08:16:02;;;;;;;7.15;5.90;;;;;;;;;;5020400;28;20841;-68
2023/10/24 08:18:27;;;;;;;7.13;6.03;;;;;;;;;;5020296;28;20284;-69
2023/10/24 08:20:54;;;;;;;7.18;6.15;;;;;;;;;;5027920;28;20232;-68
2023/10/24 08:23:19;;;;;;;8.45;5.55;;;;;;;;;;5027631;28;20558;-71
2023/10/24 08:25:44;;;;;;;6.90;5.50;;;;;;;;;;5020147;28;20190;-69
2023/10/24 08:28:10;;;;;;;7.00;5.43;;;;;;;;;;5026028;28;20336;-69
2023/10/24 08:30:35;;;;;;;6.38;5.28;;;;;;;;;;5019041;28;20199;-68
2023/10/24 08:33:01;;;;;;;6.57;5.30;;;;;;;;;;5019893;28;20293;-69
2023/10/24 08:35:26;;;;;;;6.07;5.28;;;;;;;;;;5029241;28;20189;-69
2023/10/24 08:37:52;;;;;;;7.22;5.30;;;;;;;;;;5023508;28;20237;-68
2023/10/24 08:40:17;;;;;;;6.40;5.47;;;;;;;;;;5028665;28;20219;-69
2023/10/24 08:42:43;;;;;;;5.82;5.18;;;;;;;;;;5033379;28;20187;-69
2023/10/24 08:45:10;;;;;;;6.35;4.82;;;;;;;;;;5037141;28;20198;-70
2023/10/24 08:47:36;;;;;;;7.05;4.97;;;;;;;;;;5030664;28;20182;-70
2023/10/24 08:50:03;;;;;;;6.03;4.57;;;;;;;;;;5032998;28;20200;-68
2023/10/24 08:52:31;;;;;;;5.78;4.80;;;;;;;;;;5031873;28;20178;-68
2023/10/24 08:55:01;;;;;;;5.80;5.20;;;;;;;;;;5029612;28;20673;-69
2023/10/24 08:57:34;;;;;;;6.47;4.88;;;;;;;;;;5030873;28;20506;-69
2023/10/24 09:00:00;;;;;;;4.60;4.05;;;;;;;;;;5023407;28;20279;-69
2023/10/24 09:02:26;;;;;;;5.55;4.55;;;;;;;;;;5026273;28;20701;-73
2023/10/24 09:04:51;;;;;;;5.45;4.88;;;;;;;;;;5044336;28;20194;-74
2023/10/24 09:07:17;;;;;;;6.13;5.30;;;;;;;;;;5019467;28;20717;-74
2023/10/24 09:09:42;;;;;;;7.30;4.80;;;;;;;;;;5031612;28;20269;-70
2023/10/24 09:12:14;;;;;;;6.30;4.93;;;;;;;;;;5018669;28;20210;-69
2023/10/24 09:14:40;;;;;;;6.05;5.25;;;;;;;;;;5035943;28;20702;-69
2023/10/24 09:17:05;;;;;;;9.00;5.22;;;;;;;;;;5025524;28;20197;-68
2023/10/24 09:19:32;;;;;;;6.40;5.32;;;;;;;;;;5031416;28;20296;-68
2023/10/24 09:21:57;;;;;;;7.20;5.78;;;;;;;;;;5031567;28;20216;-68
2023/10/24 09:24:23;;;;;;;7.88;5.55;;;;;;;;;;5036425;28;20216;-68
2023/10/24 09:26:54;;;;;;;7.38;5.68;;;;;;;;;;5039479;28;20265;-73
2023/10/24 09:29:20;;;;;;;6.38;5.43;;;;;;;;;;5023945;28;20182;-69
2023/10/24 09:31:48;;;;;;;6.90;5.93;;;;;;;;;;5017931;28;20204;-70
2023/10/24 09:34:16;;;;;;;7.63;6.35;;;;;;;;;;5026281;28;20667;-68
2023/10/24 09:36:41;;;;;;;8.80;5.65;;;;;;;;;;5016778;28;20215;-68
2023/10/24 09:39:10;;;;;;;7.32;5.88;;;;;;;;;;5030990;28;20225;-67
2023/10/24 09:41:35;;;;;;;7.32;5.78;;;;;;;;;;5022279;28;20221;-68
2023/10/24 09:44:02;;;;;;;7.38;6.07;;;;;;;;;;5028341;28;20214;-70
2023/10/24 09:46:28;;;;;;;8.75;6.35;;;;;;;;;;5030214;28;20182;-72
2023/10/24 09:48:55;;;;;;;8.18;7.18;;;;;;;;;;5027320;28;20499;-70
2023/10/24 09:51:22;;;;;;;8.55;6.50;;;;;;;;;;5031803;28;20190;-70
2023/10/24 09:53:48;;;;;;;8.93;7.30;;;;;;;;;;5033559;28;20193;-70
2023/10/24 09:56:16;;;;;;;9.25;6.90;;;;;;;;;;5031301;28;20228;-70
2023/10/24 09:58:43;;;;;;;8.55;7.18;;;;;;;;;;5029075;28;20272;-73
2023/10/24 10:01:09;;;;;;;14.15;7.50;;;;;;;;;;5027422;28;20197;-70
2023/10/24 10:03:36;;;;;;;12.52;6.78;;;;;;;;;;5033838;28;20213;-70
2023/10/24 10:06:13;;;;;;;9.23;7.18;;;;;;;;;;5024132;28;20190;-70
2023/10/24 10:08:40;;;;;;;11.43;7.60;;;;;;;;;;5031766;28;20198;-71
2023/10/24 10:11:06;;;;;;;8.73;7.03;;;;;;;;;;5022737;28;20337;-70
2023/10/24 10:13:45;;;;;;;9.93;6.78;;;;;;;;;;5029998;28;20190;-69
2023/10/24 10:16:35;;;;;;;11.65;7.00;;;;;;;;;;5028262;28;20234;-69
2023/10/24 10:19:41;;;;;;;7.82;6.05;;;;;;;;;;5026546;28;20221;-69
2023/10/24 10:22:34;;;;;;;11.27;6.72;;;;;;;;;;5030421;28;20244;-69
2023/10/24 10:25:12;;;;;;;9.48;6.88;;;;;;;;;;5043125;28;20248;-69
2023/10/24 10:27:55;;;;;;;9.75;7.07;;;;;;;;;;5022286;28;20594;-69
2023/10/24 10:30:34;;;;;;;7.68;6.88;;;;;;;;;;5023573;28;20746;-69
2023/10/24 10:33:13;;;;;;;8.88;6.53;;;;;;;;;;5019721;28;20190;-73
2023/10/24 10:35:57;;;;;;;7.65;6.80;;;;;;;;;;5026730;28;20194;-69
2023/10/24 10:38:42;;;;;;;9.13;6.75;;;;;;;;;;5020826;28;20189;-69
2023/10/24 10:41:27;;;;;;;9.90;6.97;;;;;;;;;;5027484;28;20278;-69
2023/10/24 10:44:01;;;;;;;9.35;7.18;;;;;;;;;;5022304;28;20222;-69
2023/10/24 10:46:30;;;;;;;8.73;6.45;;;;;;;;;;5024812;28;20201;-68
2023/10/24 10:48:56;;;;;;;7.75;6.70;;;;;;;;;;5022679;28;20189;-69
2023/10/24 10:51:27;;;;;;;8.52;6.80;;;;;;;;;;5030366;28;20190;-69
2023/10/24 10:54:17;;;;;;;5.68;5.03;;;;;;;;;;5025984;28;20210;-69
2023/10/24 10:56:43;;;;;;;7.80;6.43;;;;;;;;;;5028673;28;20194;-71
2023/10/24 10:59:27;;;;;;;8.60;6.20;;;;;;;;;;5020112;28;20791;-69
2023/10/24 11:02:14;;;;;;;11.93;6.72;;;;;;;;;;5018205;28;20232;-68
2023/10/24 11:04:39;;;;;;;10.43;6.50;;;;;;;;;;5023320;28;20190;-68
2023/10/24 11:07:06;;;;;;;6.97;5.97;;;;;;;;;;5023769;28;20232;-68
2023/10/24 11:09:35;;;;;;;7.97;6.40;;;;;;;;;;5038683;28;20228;-68
2023/10/24 11:12:19;;;;;;;8.25;6.22;;;;;;;;;;5028041;28;20736;-69
2023/10/24 11:15:07;;;;;;;7.32;6.03;;;;;;;;;;5021568;28;20604;-68
2023/10/24 11:17:33;;;;;;;7.70;6.40;;;;;;;;;;5029759;28;20649;-68
2023/10/24 11:19:59;;;;;;;7.18;5.80;;;;;;;;;;5029297;28;20594;-69
2023/10/24 11:22:25;;;;;;;9.98;6.20;;;;;;;;;;5025804;28;20735;-69
2023/10/24 11:24:50;;;;;;;8.27;5.95;;;;;;;;;;5026615;28;20202;-70
2023/10/24 11:27:16;;;;;;;6.55;5.88;;;;;;;;;;5029526;28;20559;-68
2023/10/24 11:29:42;;;;;;;7.93;6.00;;;;;;;;;;5041980;28;20185;-68
2023/10/24 11:32:07;;;;;;;10.15;5.70;;;;;;;;;;5014338;28;20236;-69
2023/10/24 11:34:33;;;;;;;8.32;5.25;;;;;;;;;;5034615;28;20598;-68
2023/10/24 11:36:59;;;;;;;7.88;5.00;;;;;;;;;;5021456;28;21283;-68
2023/10/24 11:39:24;;;;;;;7.30;5.15;;;;;;;;;;5023879;28;20261;-69
2023/10/24 11:41:49;;;;;;;7.55;5.53;;;;;;;;;;5017984;28;20244;-69
2023/10/24 11:44:17;;;;;;;6.90;5.32;;;;;;;;;;5020143;28;20182;-74
2023/10/24 11:46:43;;;;;;;5.53;4.97;;;;;;;;;;5029577;28;20279;-70
2023/10/24 11:49:10;;;;;;;6.40;5.15;;;;;;;;;;5024393;28;20207;-69
2023/10/24 11:51:36;;;;;;;7.57;5.28;;;;;;;;;;5023146;28;20213;-69
2023/10/24 11:54:06;;;;;;;7.25;5.20;;;;;;;;;;5018615;28;20269;-69
2023/10/24 11:56:32;;;;;;;6.38;5.45;;;;;;;;;;5028032;28;20588;-69
2023/10/24 11:58:59;;;;;;;6.38;5.10;;;;;;;;;;5026201;28;20289;-69
2023/10/24 12:01:28;;;;;;;8.15;5.15;;;;;;;;;;5029209;28;20187;-69
2023/10/24 12:03:58;;;;;;;5.47;4.45;;;;;;;;;;5021017;28;20249;-69
2023/10/24 12:06:26;;;;;;;5.65;5.15;;;;;;;;;;5025675;28;20201;-70
2023/10/24 12:08:52;;;;;;;7.25;5.03;;;;;;;;;;5022551;28;20197;-73
2023/10/24 12:11:18;;;;;;;5.65;5.15;;;;;;;;;;5015370;28;20190;-69
2023/10/24 12:13:44;;;;;;;7.15;4.68;;;;;;;;;;5025119;28;20178;-69
2023/10/24 12:16:10;;;;;;;5.47;4.88;;;;;;;;;;5023931;28;20238;-71
2023/10/24 12:18:38;;;;;;;6.35;5.13;;;;;;;;;;5043674;28;20182;-69
2023/10/24 12:21:13;;;;;;;5.25;4.70;;;;;;;;;;5020384;28;20256;-68
2023/10/24 12:23:39;;;;;;;6.00;5.13;;;;;;;;;;5027035;28;20317;-69
2023/10/24 12:26:04;;;;;;;7.80;5.03;;;;;;;;;;5029728;28;20645;-69
2023/10/24 12:28:32;;;;;;;6.80;4.82;;;;;;;;;;5023815;28;20506;-69
2023/10/24 12:30:57;;;;;;;8.85;5.15;;;;;;;;;;5021270;28;20182;-69
2023/10/24 12:33:23;;;;;;;6.10;5.13;;;;;;;;;;5035931;28;20273;-69
2023/10/24 12:35:48;;;;;;;8.63;5.05;;;;;;;;;;5028311;28;20198;-68
2023/10/24 12:38:15;;;;;;;4.97;4.47;;;;;;;;;;5018236;28;20244;-68
2023/10/24 12:40:41;;;;;;;5.63;4.55;;;;;;;;;;5016611;28;20218;-69
2023/10/24 12:43:07;;;;;;;5.80;4.32;;;;;;;;;;5026181;28;20187;-69
2023/10/24 12:45:32;;;;;;;10.23;4.53;;;;;;;;;;5021688;28;20213;-69
2023/10/24 12:47:59;;;;;;;4.75;4.25;;;;;;;;;;5023472;28;20249;-70
2023/10/24 12:50:25;;;;;;;5.93;4.13;;;;;;;;;;5026369;28;20380;-69
2023/10/24 12:52:50;;;;;;;5.82;4.30;;;;;;;;;;5036095;28;20273;-68
2023/10/24 12:55:16;;;;;;;7.03;3.90;;;;;;;;;;5014885;28;20230;-68
2023/10/24 12:57:41;;;;;;;3.88;3.47;;;;;;;;;;5024968;28;20740;-68
2023/10/24 13:00:08;;;;;;;4.82;3.58;;;;;;;;;;5034677;28;20300;-68
2023/10/24 13:02:34;;;;;;;4.63;3.92;;;;;;;;;;5030193;28;20194;-68
2023/10/24 13:04:59;;;;;;;5.80;4.20;;;;;;;;;;5029224;28;20264;-68
2023/10/24 13:07:25;;;;;;;5.20;3.75;;;;;;;;;;5033522;28;20656;-68
2023/10/24 13:09:50;;;;;;;5.57;4.07;;;;;;;;;;5029329;28;20244;-68
2023/10/24 13:12:16;;;;;;;5.18;3.95;;;;;;;;;;5029373;28;20186;-69
2023/10/24 13:14:41;;;;;;;5.68;4.20;;;;;;;;;;5027577;28;20696;-69
2023/10/24 13:17:06;;;;;;;5.90;4.05;;;;;;;;;;5032135;28;20207;-69
2023/10/24 13:19:32;;;;;;;7.80;4.65;;;;;;;;;;5030563;28;20206;-69
2023/10/24 13:21:57;;;;;;;6.07;3.80;;;;;;;;;;5036867;28;20204;-71
2023/10/24 13:24:23;;;;;;;5.45;4.00;;;;;;;;;;5037857;28;20190;-68
2023/10/24 13:26:49;;;;;;;4.60;3.97;;;;;;;;;;5030608;28;20281;-70
2023/10/24 13:29:15;;;;;;;6.20;4.22;;;;;;;;;;5020830;28;20187;-69
2023/10/24 13:31:42;;;;;;;6.90;4.15;;;;;;;;;;5027559;28;20271;-72
2023/10/24 13:34:08;;;;;;;5.57;4.32;;;;;;;;;;5028372;28;20225;-69
2023/10/24 13:36:33;;;;;;;6.75;4.50;;;;;;;;;;5028864;28;20186;-69
2023/10/24 13:38:59;;;;;;;5.90;4.05;;;;;;;;;;5024458;28;20194;-70
2023/10/24 13:41:24;;;;;;;5.68;4.00;;;;;;;;;;5025816;28;20178;-69
2023/10/24 13:43:50;;;;;;;5.43;4.10;;;;;;;;;;5027564;28;20220;-69
2023/10/24 13:46:15;;;;;;;5.80;4.30;;;;;;;;;;5029749;28;20220;-69
2023/10/24 13:48:41;;;;;;;4.95;4.30;;;;;;;;;;5028603;28;20198;-68
2023/10/24 13:51:06;;;;;;;6.47;3.58;;;;;;;;;;5030192;28;20193;-68
2023/10/24 13:53:31;;;;;;;8.40;4.05;;;;;;;;;;5029727;28;20276;-68
2023/10/24 13:55:57;;;;;;;6.95;3.85;;;;;;;;;;5037745;28;20258;-68
2023/10/24 13:58:22;;;;;;;6.22;3.85;;;;;;;;;;5029214;28;20229;-69
2023/10/24 14:00:48;;;;;;;6.65;3.65;;;;;;;;;;5029268;28;20222;-69
2023/10/24 14:03:13;;;;;;;5.47;3.50;;;;;;;;;;5027996;28;20261;-70
2023/10/24 14:05:40;;;;;;;5.63;3.35;;;;;;;;;;5030587;28;20234;-69
2023/10/24 14:08:06;;;;;;;8.63;3.67;;;;;;;;;;5023275;28;20187;-70
2023/10/24 14:10:31;;;;;;;4.25;3.00;;;;;;;;;;5032324;28;20185;-69
2023/10/24 14:12:57;;;;;;;3.40;3.10;;;;;;;;;;5028823;28;20226;-69
2023/10/24 14:15:23;;;;;;;3.45;3.10;;;;;;;;;;5030379;28;20260;-69
2023/10/24 14:17:48;;;;;;;7.15;3.63;;;;;;;;;;5031299;28;20228;-69
2023/10/24 14:20:14;;;;;;;5.53;3.28;;;;;;;;;;5029575;28;20225;-69
2023/10/24 14:22:40;;;;;;;3.95;3.20;;;;;;;;;;5013586;28;20202;-70
2023/10/24 14:25:06;;;;;;;3.75;3.40;;;;;;;;;;5024719;28;20316;-70
2023/10/24 14:27:32;;;;;;;6.20;3.35;;;;;;;;;;5027089;28;20237;-69